createdAt,value
2018-05-14T00:02:26.709Z,7.03
2018-05-14T00:04:52.936Z,7.27
2018-05-14T00:07:19.164Z,7.20
2018-05-14T00:09:45.363Z,6.77
2018-05-14T00:12:11.551Z,7.57
2018-05-14T00:14:38.335Z,7.47
2018-05-14T00:17:05.030Z,7.27
2018-05-14T00:19:31.235Z,6.83
2018-05-14T00:21:57.450Z,6.73
2018-05-14T00:24:23.660Z,8.17
2018-05-14T00:26:49.861Z,7.80
2018-05-14T00:29:16.090Z,8.60
2018-05-14T00:31:42.292Z,7.20
2018-05-14T00:34:08.524Z,7.60
2018-05-14T00:36:34.742Z,8.67
2018-05-14T00:39:02.028Z,8.53
2018-05-14T00:41:28.239Z,8.43
2018-05-14T00:43:54.520Z,8.47
2018-05-14T00:46:20.746Z,8.13
2018-05-14T00:48:46.945Z,7.80
2018-05-14T00:51:13.548Z,8.60
2018-05-14T00:53:39.757Z,8.60
2018-05-14T00:56:05.955Z,8.27
2018-05-14T00:58:32.179Z,7.60
2018-05-14T01:01:00.379Z,7.43
2018-05-14T01:03:26.578Z,7.80
2018-05-14T01:05:52.818Z,8.07
2018-05-14T01:08:19.035Z,8.30
2018-05-14T01:10:45.224Z,7.60
2018-05-14T01:13:11.436Z,7.80
2018-05-14T01:15:37.623Z,8.10
2018-05-14T01:18:03.877Z,6.23
2018-05-14T01:20:30.080Z,7.10
2018-05-14T01:22:56.293Z,6.63
2018-05-14T01:25:22.896Z,6.73
2018-05-14T01:27:49.111Z,7.00
2018-05-14T01:30:15.313Z,9.23
2018-05-14T01:32:41.513Z,8.00
2018-05-14T01:35:07.725Z,7.33
2018-05-14T01:37:33.942Z,7.80
2018-05-14T01:40:00.183Z,7.40
2018-05-14T01:42:27.043Z,7.40
2018-05-14T01:44:53.265Z,6.93
2018-05-14T01:47:20.850Z,7.40
2018-05-14T01:49:47.250Z,7.10
2018-05-14T01:52:13.827Z,8.00
2018-05-14T01:54:40.051Z,6.60
2018-05-14T01:57:06.285Z,7.77
2018-05-14T01:59:32.514Z,7.03
2018-05-14T02:01:58.748Z,5.97
2018-05-14T02:04:24.965Z,6.87
2018-05-14T02:06:51.270Z,6.93
2018-05-14T02:09:17.440Z,6.20
2018-05-14T02:11:43.665Z,6.40
2018-05-14T02:14:09.908Z,7.30
2018-05-14T02:16:36.117Z,6.27
2018-05-14T02:19:02.345Z,7.27
2018-05-14T02:21:28.572Z,6.50
2018-05-14T02:23:54.797Z,7.50
2018-05-14T02:26:20.991Z,6.50
2018-05-14T02:28:47.182Z,6.30
2018-05-14T02:31:13.421Z,6.90
2018-05-14T02:33:39.631Z,6.40
2018-05-14T02:36:05.857Z,6.93
2018-05-14T02:38:32.084Z,6.30
2018-05-14T02:40:58.336Z,6.90
2018-05-14T02:43:24.563Z,6.10
2018-05-14T02:45:50.778Z,6.87
2018-05-14T02:48:17.034Z,7.67
2018-05-14T02:50:43.245Z,6.80
2018-05-14T02:53:09.436Z,6.57
2018-05-14T02:55:35.681Z,7.53
2018-05-14T02:58:01.933Z,7.63
2018-05-14T03:00:28.535Z,6.57
2018-05-14T03:02:54.779Z,7.10
2018-05-14T03:05:20.967Z,7.47
2018-05-14T03:07:47.158Z,6.80
2018-05-14T03:10:13.767Z,7.57
2018-05-14T03:12:39.988Z,7.10
2018-05-14T03:15:06.188Z,7.07
2018-05-14T03:17:32.450Z,7.40
2018-05-14T03:19:58.647Z,8.00
2018-05-14T03:22:24.852Z,7.10
2018-05-14T03:24:51.737Z,6.87
2018-05-14T03:27:17.960Z,7.10
2018-05-14T03:29:44.141Z,7.20
2018-05-14T03:32:10.371Z,7.70
2018-05-14T03:34:36.931Z,7.40
2018-05-14T03:37:03.148Z,7.00
2018-05-14T03:39:29.404Z,5.80
2018-05-14T03:41:55.624Z,6.63
2018-05-14T03:44:21.849Z,7.47
2018-05-14T03:46:49.052Z,7.80
2018-05-14T03:49:15.270Z,7.00
2018-05-14T03:51:41.471Z,7.50
2018-05-14T03:54:07.666Z,8.23
2018-05-14T03:56:33.909Z,7.63
2018-05-14T03:59:12.222Z,7.60
2018-05-14T04:01:50.641Z,8.10
2018-05-14T04:04:29.020Z,9.00
2018-05-14T04:06:55.656Z,7.87
2018-05-14T04:09:21.877Z,8.40
2018-05-14T04:11:48.107Z,7.30
2018-05-14T04:14:14.302Z,9.57
2018-05-14T04:16:40.535Z,7.53
2018-05-14T04:19:06.819Z,8.30
2018-05-14T04:21:33.002Z,8.07
2018-05-14T04:24:00.098Z,8.30
2018-05-14T04:26:26.344Z,7.90
2018-05-14T04:28:52.556Z,7.63
2018-05-14T04:31:18.781Z,8.40
2018-05-14T04:33:45.032Z,7.40
2018-05-14T04:36:11.311Z,7.40
2018-05-14T04:38:37.878Z,9.10
2018-05-14T04:41:04.131Z,7.10
2018-05-14T04:43:30.343Z,7.60
2018-05-14T04:45:56.561Z,7.03
2018-05-14T04:48:22.832Z,7.77
2018-05-14T04:50:49.069Z,8.13
2018-05-14T04:53:15.329Z,8.67
2018-05-14T04:55:41.584Z,9.33
2018-05-14T04:58:07.786Z,8.93
2018-05-14T05:00:33.988Z,10.17
2018-05-14T05:03:00.220Z,10.00
2018-05-14T05:05:26.825Z,8.23
2018-05-14T05:07:53.057Z,9.20
2018-05-14T05:10:19.419Z,9.47
2018-05-14T05:12:46.405Z,9.53
2018-05-14T05:15:12.644Z,9.03
2018-05-14T05:17:38.896Z,8.23
2018-05-14T05:20:05.148Z,10.37
2018-05-14T05:22:31.369Z,9.43
2018-05-14T05:24:57.594Z,9.60
2018-05-14T05:27:23.775Z,9.80
2018-05-14T05:29:49.987Z,9.27
2018-05-14T05:32:16.319Z,9.70
2018-05-14T05:34:42.569Z,9.60
2018-05-14T05:37:08.805Z,10.27
2018-05-14T05:39:35.598Z,10.20
2018-05-14T05:42:02.214Z,10.50
2018-05-14T05:44:28.495Z,9.03
2018-05-14T05:46:54.720Z,10.77
2018-05-14T05:49:20.950Z,9.67
2018-05-14T05:51:47.179Z,9.70
2018-05-14T05:54:13.385Z,11.33
2018-05-14T05:56:39.977Z,10.00
2018-05-14T05:59:06.239Z,9.80
2018-05-14T06:01:33.160Z,11.10
2018-05-14T06:03:59.846Z,9.77
2018-05-14T06:06:26.044Z,10.53
2018-05-14T06:08:52.634Z,10.00
2018-05-14T06:11:18.859Z,11.57
2018-05-14T06:13:45.114Z,11.07
2018-05-14T06:16:11.361Z,10.77
2018-05-14T06:18:37.943Z,11.13
2018-05-14T06:21:04.154Z,11.87
2018-05-14T06:23:30.445Z,10.30
2018-05-14T06:25:56.663Z,10.50
2018-05-14T06:28:22.878Z,9.60
2018-05-14T06:30:49.131Z,9.37
2018-05-14T06:33:15.332Z,9.93
2018-05-14T06:35:41.666Z,10.70
2018-05-14T06:38:07.790Z,9.10
2018-05-14T06:40:34.016Z,12.13
2018-05-14T06:43:00.242Z,9.90
2018-05-14T06:45:26.468Z,8.63
2018-05-14T06:47:52.667Z,8.17
2018-05-14T06:50:18.920Z,9.00
2018-05-14T06:52:45.171Z,8.93
2018-05-14T06:55:11.492Z,8.37
2018-05-14T06:57:37.715Z,9.10
2018-05-14T07:00:03.966Z,8.63
2018-05-14T07:02:30.233Z,8.93
2018-05-14T07:04:56.524Z,8.07
2018-05-14T07:07:22.732Z,8.77
2018-05-14T07:09:48.961Z,8.10
2018-05-14T07:12:15.158Z,8.27
2018-05-14T07:14:41.483Z,9.10
2018-05-14T07:17:07.683Z,7.93
2018-05-14T07:19:35.218Z,8.07
2018-05-14T07:22:01.457Z,8.13
2018-05-14T07:24:27.667Z,8.33
2018-05-14T07:26:53.885Z,8.87
2018-05-14T07:29:20.335Z,8.30
2018-05-14T07:31:46.345Z,8.83
2018-05-14T07:34:12.581Z,9.13
2018-05-14T07:36:38.836Z,8.00
2018-05-14T07:39:05.116Z,8.77
2018-05-14T07:41:31.374Z,9.33
2018-05-14T07:43:57.600Z,8.47
2018-05-14T07:46:23.818Z,8.90
2018-05-14T07:48:50.051Z,8.70
2018-05-14T07:51:16.336Z,7.63
2018-05-14T07:53:42.553Z,8.20
2018-05-14T07:56:08.782Z,7.77
2018-05-14T07:58:35.032Z,7.60
2018-05-14T08:01:01.259Z,8.87
2018-05-14T08:03:27.506Z,8.40
2018-05-14T08:05:55.118Z,7.13
2018-05-14T08:08:21.689Z,7.07
2018-05-14T08:10:47.911Z,8.00
2018-05-14T08:13:14.135Z,7.67
2018-05-14T08:15:40.396Z,8.20
2018-05-14T08:18:06.623Z,8.97
2018-05-14T08:20:32.841Z,6.97
2018-05-14T08:22:59.177Z,8.10
2018-05-14T08:25:25.391Z,7.33
2018-05-14T08:27:51.617Z,7.70
2018-05-14T08:30:17.846Z,7.30
2018-05-14T08:32:44.061Z,8.03
2018-05-14T08:35:10.439Z,7.33
2018-05-14T08:37:36.643Z,7.53
2018-05-14T08:40:03.782Z,8.30
2018-05-14T08:42:30.069Z,8.63
2018-05-14T08:44:56.267Z,7.80
2018-05-14T08:47:22.450Z,8.77
2018-05-14T08:49:48.639Z,8.63
2018-05-14T08:52:14.882Z,8.67
2018-05-14T08:54:41.495Z,9.00
2018-05-14T08:57:07.710Z,9.40
2018-05-14T08:59:33.988Z,8.70
2018-05-14T09:02:00.199Z,8.27
2018-05-14T09:04:26.780Z,7.60
2018-05-14T09:06:53.064Z,8.40
2018-05-14T09:09:19.702Z,8.60
2018-05-14T09:11:45.942Z,7.30
2018-05-14T09:14:12.671Z,8.00
2018-05-14T09:16:38.895Z,8.20
2018-05-14T09:19:05.109Z,8.10
2018-05-14T09:21:31.372Z,8.23
2018-05-14T09:23:57.669Z,8.87
2018-05-14T09:26:23.885Z,8.10
2018-05-14T09:28:50.132Z,8.03
2018-05-14T09:31:16.405Z,8.53
2018-05-14T09:33:43.868Z,8.70
2018-05-14T09:36:10.939Z,8.70
2018-05-14T09:38:37.178Z,9.30
2018-05-14T09:41:03.381Z,8.93
2018-05-14T09:43:29.642Z,9.07
2018-05-14T09:45:55.832Z,9.27
2018-05-14T09:48:22.029Z,9.50
2018-05-14T09:50:48.245Z,9.80
2018-05-14T09:53:14.872Z,9.50
2018-05-14T09:55:41.450Z,8.23
2018-05-14T09:58:07.702Z,8.77
2018-05-14T10:00:33.906Z,11.63
2018-05-14T10:03:00.109Z,9.37
2018-05-14T10:05:26.338Z,8.47
2018-05-14T10:07:52.570Z,8.93
2018-05-14T10:10:19.577Z,9.23
2018-05-14T10:12:46.795Z,9.67
2018-05-14T10:15:13.021Z,9.47
2018-05-14T10:17:39.260Z,10.13
2018-05-14T10:20:05.507Z,9.23
2018-05-14T10:22:31.755Z,10.23
2018-05-14T10:24:57.982Z,10.43
2018-05-14T10:27:24.247Z,10.37
2018-05-14T10:29:50.428Z,9.60
2018-05-14T10:32:16.643Z,9.93
2018-05-14T10:34:42.878Z,10.80
2018-05-14T10:37:09.092Z,12.10
2018-05-14T10:39:35.325Z,11.47
2018-05-14T10:42:01.582Z,12.17
2018-05-14T10:44:27.795Z,11.63
2018-05-14T10:46:54.000Z,13.33
2018-05-14T10:49:20.289Z,15.30
2018-05-14T10:51:46.468Z,16.40
2018-05-14T10:54:12.726Z,16.73
2018-05-14T10:56:38.963Z,14.43
2018-05-14T10:59:05.204Z,12.77
2018-05-14T11:01:31.459Z,13.03
2018-05-14T11:03:58.244Z,12.63
2018-05-14T11:06:24.489Z,13.33
2018-05-14T11:08:50.780Z,14.27
2018-05-14T11:11:17.121Z,12.27
2018-05-14T11:13:43.348Z,12.17
2018-05-14T11:16:09.629Z,12.07
2018-05-14T11:18:35.804Z,13.27
2018-05-14T11:21:02.024Z,12.80
2018-05-14T11:23:28.287Z,11.43
2018-05-14T11:25:54.606Z,11.70
2018-05-14T11:28:21.876Z,12.40
2018-05-14T11:30:48.201Z,11.17
2018-05-14T11:33:14.481Z,11.50
2018-05-14T11:35:41.610Z,11.03
2018-05-14T11:38:07.836Z,12.30
2018-05-14T11:40:34.075Z,9.70
2018-05-14T11:43:00.390Z,11.27
2018-05-14T11:45:26.610Z,12.20
2018-05-14T11:47:53.832Z,11.47
2018-05-14T11:50:20.120Z,10.50
2018-05-14T11:52:46.340Z,11.43
2018-05-14T11:55:12.604Z,12.30
2018-05-14T11:57:38.914Z,11.87
2018-05-14T12:00:05.153Z,11.50
2018-05-14T12:02:31.436Z,11.73
2018-05-14T12:04:57.689Z,11.80
2018-05-14T12:07:23.897Z,11.30
2018-05-14T12:09:50.118Z,11.50
2018-05-14T12:12:16.447Z,12.40
2018-05-14T12:14:42.621Z,11.47
2018-05-14T12:17:08.862Z,12.20
2018-05-14T12:19:36.014Z,11.17
2018-05-14T12:22:02.288Z,11.03
2018-05-14T12:24:28.557Z,12.63
2018-05-14T12:26:54.799Z,12.40
2018-05-14T12:29:21.028Z,13.00
2018-05-14T12:31:47.232Z,13.03
2018-05-14T12:34:13.522Z,13.27
2018-05-14T12:36:39.793Z,12.23
2018-05-14T12:39:06.032Z,13.60
2018-05-14T12:41:32.299Z,12.80
2018-05-14T12:43:58.537Z,12.60
2018-05-14T12:46:24.767Z,11.20
2018-05-14T12:48:51.052Z,13.10
2018-05-14T12:51:17.862Z,14.20
2018-05-14T12:53:44.108Z,13.03
2018-05-14T12:56:10.452Z,14.17
2018-05-14T12:58:36.705Z,15.00
2018-05-14T13:01:03.936Z,12.80
2018-05-14T13:03:30.191Z,13.23
2018-05-14T13:05:56.464Z,14.97
2018-05-14T13:08:22.793Z,15.47
2018-05-14T13:10:49.052Z,15.43
2018-05-14T13:13:15.290Z,15.03
2018-05-14T13:15:41.610Z,14.73
2018-05-14T13:18:07.840Z,17.07
2018-05-14T13:20:34.080Z,17.27
2018-05-14T13:23:00.327Z,17.20
2018-05-14T13:25:26.940Z,17.27
2018-05-14T13:27:53.166Z,18.43
2018-05-14T13:30:19.400Z,18.57
2018-05-14T13:32:45.649Z,20.03
2018-05-14T13:35:11.964Z,19.03
2018-05-14T13:37:38.270Z,19.50
2018-05-14T13:40:04.465Z,18.80
2018-05-14T13:42:30.741Z,17.40
2018-05-14T13:44:57.804Z,17.83
2018-05-14T13:47:24.411Z,16.50
2018-05-14T13:49:50.673Z,16.13
2018-05-14T13:52:17.261Z,18.50
2018-05-14T13:54:43.497Z,16.67
2018-05-14T13:57:09.790Z,17.20
2018-05-14T13:59:36.043Z,18.70
2018-05-14T14:02:03.132Z,17.63
2018-05-14T14:04:29.424Z,18.50
2018-05-14T14:06:55.698Z,18.57
2018-05-14T14:09:22.331Z,19.60
2018-05-14T14:11:48.663Z,18.70
2018-05-14T14:14:14.944Z,18.90
2018-05-14T14:16:41.238Z,19.03
2018-05-14T14:19:07.844Z,19.27
2018-05-14T14:21:34.074Z,17.87
2018-05-14T14:24:01.508Z,18.40
2018-05-14T14:26:27.579Z,16.97
2018-05-14T14:28:54.218Z,18.10
2018-05-14T14:31:20.821Z,18.30
2018-05-14T14:33:47.059Z,18.13
2018-05-14T14:38:46.236Z,18.43
2018-05-14T14:41:12.476Z,18.13
2018-05-14T14:43:38.690Z,19.47
2018-05-14T14:46:04.915Z,18.33
2018-05-14T14:48:31.158Z,17.97
2018-05-14T14:50:57.396Z,17.87
2018-05-14T14:53:23.631Z,18.00
2018-05-14T14:55:49.899Z,18.00
2018-05-14T14:58:16.556Z,19.43
2018-05-14T15:00:42.760Z,18.30
2018-05-14T15:03:09.406Z,19.27
2018-05-14T15:05:36.000Z,19.97
2018-05-14T15:08:02.248Z,19.50
2018-05-14T15:10:28.544Z,20.03
2018-05-14T15:12:54.765Z,19.10
2018-05-14T15:15:21.013Z,19.43
2018-05-14T15:17:47.320Z,18.50
2018-05-14T15:20:13.542Z,19.17
2018-05-14T15:22:39.785Z,16.00
2018-05-14T15:25:06.112Z,17.30
2018-05-14T15:27:32.376Z,17.47
2018-05-14T15:29:58.621Z,17.13
2018-05-14T15:32:24.944Z,16.10
2018-05-14T15:34:51.636Z,16.30
2018-05-14T15:37:17.966Z,16.27
2018-05-14T15:39:44.235Z,17.27
2018-05-14T15:42:10.581Z,16.87
2018-05-14T15:44:36.903Z,15.33
2018-05-14T15:47:03.591Z,15.40
2018-05-14T15:49:29.809Z,15.77
2018-05-14T15:51:56.168Z,16.37
2018-05-14T15:54:22.514Z,15.20
2018-05-14T15:56:48.731Z,16.10
2018-05-14T15:59:15.005Z,15.53
2018-05-14T16:01:41.267Z,15.13
2018-05-14T16:04:07.509Z,15.30
2018-05-14T16:06:33.744Z,15.60
2018-05-14T16:09:00.001Z,15.33
2018-05-14T16:11:26.296Z,13.70
2018-05-14T16:13:53.119Z,13.53
2018-05-14T16:16:19.737Z,15.17
2018-05-14T16:18:46.015Z,15.17
2018-05-14T16:21:12.263Z,15.50
2018-05-14T16:23:38.519Z,14.10
2018-05-14T16:26:04.774Z,17.07
2018-05-14T16:28:31.049Z,14.27
2018-05-14T16:30:57.279Z,15.17
2018-05-14T16:33:23.593Z,15.80
2018-05-14T16:35:50.699Z,16.40
2018-05-14T16:38:16.962Z,16.60
2018-05-14T16:40:43.197Z,16.57
2018-05-14T16:43:09.457Z,16.40
2018-05-14T16:45:36.087Z,15.67
2018-05-14T16:48:02.739Z,17.07
2018-05-14T16:50:29.362Z,18.70
2018-05-14T16:52:55.996Z,16.80
2018-05-14T16:55:22.202Z,17.70
2018-05-14T16:57:48.491Z,17.20
2018-05-14T17:00:14.885Z,16.43
2018-05-14T17:02:41.491Z,17.70
2018-05-14T17:05:07.801Z,17.77
2018-05-14T17:07:34.106Z,18.37
2018-05-14T17:10:00.342Z,17.73
2018-05-14T17:12:26.636Z,18.37
2018-05-14T17:14:52.945Z,17.40
2018-05-14T17:17:19.312Z,17.07
2018-05-14T17:19:45.497Z,17.43
2018-05-14T17:22:11.770Z,16.53
2018-05-14T17:24:38.420Z,14.40
2018-05-14T17:27:04.702Z,15.47
2018-05-14T17:29:30.960Z,16.70
2018-05-14T17:31:57.175Z,14.13
2018-05-14T17:34:23.413Z,14.80
2018-05-14T17:36:50.027Z,12.80
2018-05-14T17:39:16.262Z,13.57
2018-05-14T17:41:42.483Z,13.37
2018-05-14T17:44:08.819Z,13.57
2018-05-14T17:46:35.110Z,20.83
2018-05-14T17:49:01.406Z,13.83
2018-05-14T17:51:27.723Z,14.03
2018-05-14T17:53:54.321Z,14.27
2018-05-14T17:56:20.610Z,14.30
2018-05-14T17:58:47.196Z,15.37
2018-05-14T18:01:13.449Z,14.73
2018-05-14T18:03:39.773Z,15.03
2018-05-14T18:06:06.077Z,16.00
2018-05-14T18:08:32.340Z,15.13
2018-05-14T18:10:58.629Z,16.27
2018-05-14T18:13:25.241Z,15.77
2018-05-14T18:15:51.579Z,16.97
2018-05-14T18:18:17.817Z,16.17
2018-05-14T18:20:44.100Z,17.53
2018-05-14T18:23:16.726Z,17.40
2018-05-14T18:25:49.047Z,17.00
2018-05-14T18:28:15.762Z,19.40
2018-05-14T18:30:42.646Z,18.60
2018-05-14T18:33:10.689Z,18.70
2018-05-14T18:35:37.021Z,18.27
2018-05-14T18:38:03.337Z,18.50
2018-05-14T18:40:29.670Z,19.20
2018-05-14T18:42:55.927Z,20.77
2018-05-14T18:45:22.517Z,20.80
2018-05-14T18:47:48.783Z,19.67
2018-05-14T18:50:15.031Z,19.80
2018-05-14T18:52:41.654Z,20.30
2018-05-14T18:55:08.455Z,20.97
2018-05-14T18:57:35.160Z,19.97
2018-05-14T19:00:02.406Z,22.50
2018-05-14T19:02:29.564Z,20.80
2018-05-14T19:04:56.254Z,21.07
2018-05-14T19:07:22.766Z,21.30
2018-05-14T19:09:49.616Z,21.80
2018-05-14T19:12:16.356Z,22.30
2018-05-14T19:14:43.246Z,21.30
2018-05-14T19:17:15.667Z,21.87
2018-05-14T19:19:41.906Z,20.90
2018-05-14T19:22:08.212Z,21.03
2018-05-14T19:24:34.472Z,22.10
2018-05-14T19:27:00.852Z,22.83
2018-05-14T19:29:33.684Z,23.03
2018-05-14T19:31:59.941Z,21.77
2018-05-14T19:34:32.134Z,22.50
2018-05-14T19:36:58.769Z,24.10
2018-05-14T19:39:31.518Z,23.10
2018-05-14T19:41:57.776Z,24.40
2018-05-14T19:44:24.461Z,23.17
2018-05-14T19:46:50.700Z,23.13
2018-05-14T19:49:16.973Z,23.67
2018-05-14T19:51:43.265Z,23.07
2018-05-14T19:54:09.552Z,22.87
2018-05-14T19:56:35.811Z,23.90
2018-05-14T19:59:02.138Z,29.37
2018-05-14T20:01:28.374Z,32.10
2018-05-14T20:03:54.690Z,24.50
2018-05-14T20:06:21.024Z,24.80
2018-05-14T20:08:47.266Z,23.00
2018-05-14T20:11:13.582Z,23.50
2018-05-14T20:13:39.822Z,25.20
2018-05-14T20:16:06.064Z,24.57
2018-05-14T20:18:32.331Z,23.40
2018-05-14T20:20:58.604Z,24.60
2018-05-14T20:23:24.899Z,25.80
2018-05-14T20:25:51.124Z,23.60
2018-05-14T20:28:17.748Z,24.33
2018-05-14T20:30:44.345Z,26.43
2018-05-14T20:33:10.568Z,28.43
2018-05-14T20:35:36.847Z,26.90
2018-05-14T20:38:03.067Z,25.60
2018-05-14T20:40:29.725Z,26.00
2018-05-14T20:42:56.758Z,26.87
2018-05-14T20:45:22.979Z,25.47
2018-05-14T20:47:49.635Z,27.10
2018-05-14T20:50:15.897Z,24.77
2018-05-14T20:52:42.686Z,25.50
2018-05-14T20:55:09.334Z,26.93
2018-05-14T20:57:35.932Z,29.13
2018-05-14T21:00:02.262Z,26.80
2018-05-14T21:02:28.577Z,27.50
2018-05-14T21:04:54.812Z,26.83
2018-05-14T21:07:21.040Z,27.37
2018-05-14T21:09:47.293Z,28.03
2018-05-14T21:12:13.511Z,26.40
2018-05-14T21:14:40.632Z,28.83
2018-05-14T21:17:06.857Z,26.50
2018-05-14T21:19:33.135Z,26.87
2018-05-14T21:21:59.391Z,25.53
2018-05-14T21:24:25.705Z,23.90
2018-05-14T21:26:52.329Z,28.03
2018-05-14T21:29:18.536Z,27.10
2018-05-14T21:31:44.805Z,25.57
2018-05-14T21:34:11.386Z,26.13
2018-05-14T21:36:37.616Z,27.20
2018-05-14T21:39:04.689Z,28.67
2018-05-14T21:41:30.929Z,26.37
2018-05-14T21:43:57.116Z,25.73
2018-05-14T21:46:23.364Z,27.13
2018-05-14T21:48:49.591Z,27.50
2018-05-14T21:51:15.790Z,26.87
2018-05-14T21:53:42.022Z,25.63
2018-05-14T21:56:08.253Z,26.27
2018-05-14T21:58:34.483Z,27.80
2018-05-14T22:01:00.736Z,25.83
2018-05-14T22:03:26.951Z,25.23
2018-05-14T22:05:53.212Z,21.80
2018-05-14T22:08:19.831Z,21.73
2018-05-14T22:10:46.048Z,21.73
2018-05-14T22:13:12.247Z,19.17
2018-05-14T22:15:38.510Z,15.00
2018-05-14T22:18:04.731Z,13.63
2018-05-14T22:20:30.958Z,11.80
2018-05-14T22:22:57.184Z,11.40
2018-05-14T22:25:23.425Z,11.20
2018-05-14T22:27:49.618Z,10.40
2018-05-14T22:30:15.870Z,9.10
2018-05-14T22:32:42.095Z,9.50
2018-05-14T22:35:08.314Z,7.97
2018-05-14T22:37:34.561Z,8.50
2018-05-14T22:40:00.796Z,7.97
2018-05-14T22:42:27.027Z,8.10
2018-05-14T22:44:53.275Z,8.03
2018-05-14T22:47:19.871Z,7.43
2018-05-14T22:49:46.938Z,9.20
2018-05-14T22:52:13.228Z,7.53
2018-05-14T22:54:39.460Z,7.77
2018-05-14T22:57:05.688Z,7.20
2018-05-14T22:59:31.937Z,6.83
2018-05-14T23:01:58.128Z,6.90
2018-05-14T23:04:24.339Z,7.13
2018-05-14T23:06:50.940Z,6.10
2018-05-14T23:09:17.199Z,6.30
2018-05-14T23:11:43.765Z,6.23
2018-05-14T23:14:10.028Z,6.20
2018-05-14T23:16:36.298Z,5.50
2018-05-14T23:19:02.886Z,5.27
2018-05-14T23:21:29.121Z,6.83
2018-05-14T23:23:55.324Z,5.63
2018-05-14T23:26:21.631Z,5.40
2018-05-14T23:28:47.807Z,6.13
2018-05-14T23:31:14.029Z,6.27
2018-05-14T23:33:40.266Z,6.60
2018-05-14T23:36:06.477Z,5.83
2018-05-14T23:38:32.681Z,8.80
2018-05-14T23:40:58.934Z,8.00
2018-05-14T23:43:25.179Z,7.87
2018-05-14T23:45:51.381Z,8.57
2018-05-14T23:48:17.613Z,7.10
2018-05-14T23:50:43.851Z,8.20
2018-05-14T23:53:10.075Z,6.30
2018-05-14T23:55:36.288Z,6.70
2018-05-14T23:58:02.612Z,6.23
